Time;durP1;ratioP1;P1;durP2;ratioP2;P2;SDS_P1;SDS_P2;PMS_P1;PMS_P2;Temp;Humidity;BMP_temperature;BMP_pressure;BME280_temperature;BME280_humidity;BME280_pressure;Samples;Min_cycle;Max_cycle;Signal;HPM_P1;HPM_P2
2022/11/30 00:02:25;;;;;;;;;;;;;;;2.46;100.00;101110.41;5570138;32;34712;-71
2022/11/30 00:05:31;;;;;;;;;;;;;;;2.44;100.00;101103.59;5570195;32;34583;-70
2022/11/30 00:08:39;;;;;;;;;;;;;;;2.51;100.00;101102.25;5570166;32;35119;-71
2022/11/30 00:11:45;;;;;;;;;;;;;;;2.46;100.00;101107.81;5569343;32;35211;-69
2022/11/30 00:14:50;;;;;;;;;;;;;;;2.42;100.00;101102.84;5569272;32;34724;-70
2022/11/30 00:17:58;;;;;;;;;;;;;;;2.49;100.00;101102.34;5572155;31;35302;-70
2022/11/30 00:21:07;;;;;;;;;;;;;;;2.50;100.00;101100.56;5590078;31;35125;-70
2022/11/30 00:24:14;;;;;;;;;;;;;;;2.54;100.00;101100.28;5589890;31;34595;-70
2022/11/30 00:27:22;;;;;;;;;;;;;;;2.53;100.00;101105.59;5576285;31;35189;-71
2022/11/30 00:30:27;;;;;;;;;;;;;;;2.54;100.00;101095.03;5576164;31;34868;-70
2022/11/30 00:33:36;;;;;;;;;;;;;;;2.55;100.00;101094.09;5589494;31;34691;-70
2022/11/30 00:36:44;;;;;;;;;;;;;;;2.49;100.00;101093.66;5576208;31;34821;-70
2022/11/30 00:39:52;;;;;;;;;;;;;;;2.54;100.00;101091.56;5589488;31;34929;-70
2022/11/30 00:43:00;;;;;;;;;;;;;;;2.55;100.00;101088.03;5589422;31;35102;-71
2022/11/30 00:46:09;;;;;;;;;;;;;;;2.34;100.00;101095.47;5589342;31;34961;-70
2022/11/30 00:49:17;;;;;;;;;;;;;;;2.12;100.00;101098.63;5589311;31;34845;-70
2022/11/30 00:52:25;;;;;;;;;;;;;;;2.18;100.00;101100.84;5589324;31;34460;-70
2022/11/30 00:55:33;;;;;;;;;;;;;;;2.19;100.00;101099.91;5589234;31;35089;-70
2022/11/30 00:58:41;;;;;;;;;;;;;;;2.37;100.00;101108.34;5589102;31;34124;-70
2022/11/30 01:01:52;;;;;;;;;;;;;;;2.36;100.00;101101.47;5589133;31;34440;-70
2022/11/30 01:05:04;;;;;;;;;;;;;;;2.32;100.00;101097.38;5589469;31;34628;-70
2022/11/30 01:08:12;;;;;;;;;;;;;;;2.23;100.00;101095.31;5575858;31;35178;-70
2022/11/30 01:11:22;;;;;;;;;;;;;;;2.28;100.00;101095.84;5589009;31;34959;-70
2022/11/30 01:14:28;;;;;;;;;;;;;;;2.31;100.00;101093.06;5588960;31;34478;-69
2022/11/30 01:17:36;;;;;;;;;;;;;;;2.32;100.00;101083.44;5574796;31;35244;-69
2022/11/30 01:20:43;;;;;;;;;;;;;;;2.35;100.00;101091.94;5588750;31;34455;-69
2022/11/30 01:23:50;;;;;;;;;;;;;;;2.35;100.00;101094.53;5574856;31;33738;-70
2022/11/30 01:27:01;;;;;;;;;;;;;;;2.24;100.00;101094.37;5591253;31;34626;-70
2022/11/30 01:30:07;;;;;;;;;;;;;;;2.22;100.00;101100.66;5591142;31;35196;-70
2022/11/30 01:33:18;;;;;;;;;;;;;;;2.40;100.00;101094.25;5591163;31;34679;-70
2022/11/30 01:36:27;;;;;;;;;;;;;;;2.27;100.00;101099.44;5591088;31;35114;-70
2022/11/30 01:39:35;;;;;;;;;;;;;;;2.35;100.00;101102.41;5591116;31;34932;-70
2022/11/30 01:42:45;;;;;;;;;;;;;;;2.56;100.00;101090.56;5591089;31;34474;-71
2022/11/30 01:45:56;;;;;;;;;;;;;;;2.43;100.00;101099.28;5578002;31;34523;-70
2022/11/30 01:49:10;;;;;;;;;;;;;;;2.34;100.00;101090.25;5591015;31;34565;-71
2022/11/30 01:52:23;;;;;;;;;;;;;;;2.27;100.00;101091.59;5590984;31;35094;-70
2022/11/30 01:55:34;;;;;;;;;;;;;;;2.23;100.00;101090.06;5577710;31;34685;-70
2022/11/30 01:58:41;;;;;;;;;;;;;;;2.15;100.00;101082.72;5590821;31;34951;-70
2022/11/30 02:01:52;;;;;;;;;;;;;;;2.02;100.00;101081.81;5591059;31;34631;-69
2022/11/30 02:04:59;;;;;;;;;;;;;;;2.00;100.00;101082.84;5577609;31;35101;-70
2022/11/30 02:08:07;;;;;;;;;;;;;;;2.03;100.00;101091.31;5590984;31;35171;-70
2022/11/30 02:11:15;;;;;;;;;;;;;;;2.15;100.00;101082.72;5590869;31;34391;-70
2022/11/30 02:14:22;;;;;;;;;;;;;;;2.06;100.00;101088.53;5576717;31;33749;-70
2022/11/30 02:17:36;;;;;;;;;;;;;;;2.08;100.00;101085.84;5590763;31;34995;-69
2022/11/30 02:20:44;;;;;;;;;;;;;;;2.11;100.00;101091.69;5590804;31;35193;-70
2022/11/30 02:24:20;;;;;;;;;;;;;;;2.11;100.00;101089.09;5590779;31;35054;-70
2022/11/30 02:27:35;;;;;;;;;;;;;;;2.19;100.00;101084.19;5590640;31;34552;-70
2022/11/30 02:30:46;;;;;;;;;;;;;;;2.26;100.00;101084.66;5590715;31;34490;-70
2022/11/30 02:33:56;;;;;;;;;;;;;;;2.24;100.00;101081.28;5577329;31;34717;-70
2022/11/30 02:37:04;;;;;;;;;;;;;;;2.30;100.00;101085.28;5576648;31;34441;-71
2022/11/30 02:40:15;;;;;;;;;;;;;;;2.36;100.00;101083.12;5590452;31;35090;-70
2022/11/30 02:43:24;;;;;;;;;;;;;;;2.54;100.00;101074.09;5590544;31;34372;-71
2022/11/30 02:46:56;;;;;;;;;;;;;;;2.42;100.00;101064.37;5590842;31;35216;-70
2022/11/30 02:50:06;;;;;;;;;;;;;;;2.40;100.00;101065.44;5585443;31;34853;-70
2022/11/30 02:53:14;;;;;;;;;;;;;;;2.53;100.00;101058.47;5576284;31;34736;-70
2022/11/30 02:56:22;;;;;;;;;;;;;;;2.40;100.00;101054.97;5576472;31;34726;-70
2022/11/30 02:59:30;;;;;;;;;;;;;;;2.52;100.00;101059.41;5590773;31;35227;-70
2022/11/30 03:02:37;;;;;;;;;;;;;;;2.55;100.00;101054.81;5590379;31;35089;-70
2022/11/30 03:05:45;;;;;;;;;;;;;;;2.50;100.00;101061.28;5590405;31;34409;-70
2022/11/30 03:08:54;;;;;;;;;;;;;;;2.50;100.00;101063.91;5577167;31;35145;-70
2022/11/30 03:12:04;;;;;;;;;;;;;;;2.58;100.00;101069.47;5590326;31;35080;-70
2022/11/30 03:15:11;;;;;;;;;;;;;;;2.65;100.00;101069.94;5576600;31;35365;-70
2022/11/30 03:18:18;;;;;;;;;;;;;;;2.62;100.00;101069.19;5590029;31;35137;-69
2022/11/30 03:21:27;;;;;;;;;;;;;;;2.79;100.00;101060.22;5590220;31;34873;-70
2022/11/30 03:24:33;;;;;;;;;;;;;;;2.72;100.00;101056.31;5576004;31;33663;-70
2022/11/30 03:27:39;;;;;;;;;;;;;;;2.72;100.00;101064.19;5590327;31;34531;-70
2022/11/30 03:30:49;;;;;;;;;;;;;;;2.61;100.00;101064.06;5590144;31;34736;-70
2022/11/30 03:34:00;;;;;;;;;;;;;;;2.60;100.00;101068.47;5563643;31;35230;-70
2022/11/30 03:37:10;;;;;;;;;;;;;;;2.63;100.00;101073.47;5576870;31;34652;-70
2022/11/30 03:40:18;;;;;;;;;;;;;;;2.59;100.00;101077.25;5590483;31;35126;-70
2022/11/30 03:43:26;;;;;;;;;;;;;;;2.83;100.00;101074.81;5590190;31;34433;-70
2022/11/30 03:46:34;;;;;;;;;;;;;;;2.77;100.00;101084.84;5590177;31;34361;-70
2022/11/30 03:49:40;;;;;;;;;;;;;;;2.77;100.00;101084.84;5589329;31;35094;-70
2022/11/30 03:52:48;;;;;;;;;;;;;;;2.79;100.00;101077.72;5575959;31;32900;-70
2022/11/30 03:55:57;;;;;;;;;;;;;;;2.74;100.00;101079.81;5576095;31;35632;-72
2022/11/30 03:59:09;;;;;;;;;;;;;;;2.80;100.00;101082.03;5589941;31;34902;-71
2022/11/30 04:02:18;;;;;;;;;;;;;;;2.84;100.00;101073.03;5576854;31;34445;-71
2022/11/30 04:05:25;;;;;;;;;;;;;;;2.91;100.00;101071.66;5589963;31;34563;-71
2022/11/30 04:09:00;;;;;;;;;;;;;;;3.03;100.00;101073.47;5563185;31;1314422;-71
2022/11/30 04:12:07;;;;;;;;;;;;;;;2.94;100.00;101085.41;5578272;31;32654;-71
2022/11/30 04:15:14;;;;;;;;;;;;;;;2.96;100.00;101074.81;5591311;31;34773;-70
2022/11/30 04:18:20;;;;;;;;;;;;;;;2.93;100.00;101072.41;5591097;31;34837;-70
2022/11/30 04:21:28;;;;;;;;;;;;;;;2.92;100.00;101082.03;5604688;31;34404;-70
2022/11/30 04:24:36;;;;;;;;;;;;;;;2.95;100.00;101071.34;5591189;31;34569;-70
2022/11/30 04:27:45;;;;;;;;;;;;;;;2.81;100.00;101068.00;5604607;31;34209;-69
2022/11/30 04:30:59;;;;;;;;;;;;;;;2.79;100.00;101068.09;5604504;31;34183;-71
2022/11/30 04:34:08;;;;;;;;;;;;;;;2.87;100.00;101067.56;5604522;31;34478;-70
2022/11/30 04:37:16;;;;;;;;;;;;;;;2.82;100.00;101074.88;5604445;31;34697;-70
2022/11/30 04:40:24;;;;;;;;;;;;;;;2.85;100.00;101075.53;5604421;31;34535;-70
2022/11/30 04:43:32;;;;;;;;;;;;;;;2.84;100.00;101080.87;5604354;31;34083;-70
2022/11/30 04:46:39;;;;;;;;;;;;;;;2.84;100.00;101080.87;5604253;31;34215;-71
2022/11/30 04:49:47;;;;;;;;;;;;;;;2.81;100.00;101084.53;5604405;31;34208;-70
2022/11/30 04:52:54;;;;;;;;;;;;;;;2.88;100.00;101077.97;5577377;31;34442;-69
2022/11/30 04:56:05;;;;;;;;;;;;;;;2.87;100.00;101084.13;5604344;31;34709;-68
2022/11/30 04:59:14;;;;;;;;;;;;;;;3.01;100.00;101083.22;5591076;31;34121;-68
2022/11/30 05:02:23;;;;;;;;;;;;;;;2.93;100.00;101075.03;5604058;31;34017;-68
2022/11/30 05:05:30;;;;;;;;;;;;;;;3.06;100.00;101076.72;5604151;31;34837;-68
2022/11/30 05:08:38;;;;;;;;;;;;;;;3.01;100.00;101075.34;5603942;31;34065;-68
2022/11/30 05:11:47;;;;;;;;;;;;;;;3.00;100.00;101074.50;5604121;31;34650;-69
2022/11/30 05:14:56;;;;;;;;;;;;;;;2.96;100.00;101080.91;5590963;31;34045;-69
2022/11/30 05:18:02;;;;;;;;;;;;;;;2.90;100.00;101075.25;5587763;31;34832;-69
2022/11/30 05:21:10;;;;;;;;;;;;;;;2.92;100.00;101071.56;5590897;31;34594;-68
2022/11/30 05:24:16;;;;;;;;;;;;;;;2.92;100.00;101084.66;5590898;31;34083;-68
2022/11/30 05:27:26;;;;;;;;;;;;;;;2.97;100.00;101081.75;5590798;31;34304;-69
2022/11/30 05:30:33;;;;;;;;;;;;;;;2.94;100.00;101080.19;5577398;31;34369;-68
2022/11/30 05:33:42;;;;;;;;;;;;;;;2.94;100.00;101082.78;5577520;31;34670;-70
2022/11/30 05:36:50;;;;;;;;;;;;;;;3.01;100.00;101085.81;5576688;31;34287;-69
2022/11/30 05:40:01;;;;;;;;;;;;;;;3.00;100.00;101086.78;5577700;31;34570;-69
2022/11/30 05:43:09;;;;;;;;;;;;;;;3.02;100.00;101093.59;5590296;31;34809;-69
2022/11/30 05:46:15;;;;;;;;;;;;;;;3.14;100.00;101097.19;5590621;31;34091;-69
2022/11/30 05:49:21;;;;;;;;;;;;;;;3.03;100.00;101092.66;5590457;31;34853;-69
2022/11/30 05:52:26;;;;;;;;;;;;;;;3.12;100.00;101101.69;5590530;31;34199;-69
2022/11/30 05:55:32;;;;;;;;;;;;;;;3.04;100.00;101096.12;5576474;31;34219;-68
2022/11/30 05:58:37;;;;;;;;;;;;;;;3.04;100.00;101101.37;5590344;31;34536;-69
2022/11/30 06:01:43;;;;;;;;;;;;;;;3.10;100.00;101095.69;5577029;31;34508;-70
2022/11/30 06:04:47;;;;;;;;;;;;;;;3.12;100.00;101099.06;5576872;31;34750;-69
2022/11/30 06:07:50;;;;;;;;;;;;;;;3.14;100.00;101097.19;5590087;31;34738;-69
2022/11/30 06:10:59;;;;;;;;;;;;;;;3.11;100.00;101092.13;5576177;31;34788;-69
2022/11/30 06:14:01;;;;;;;;;;;;;;;3.16;100.00;101089.22;5576174;31;36513;-69
2022/11/30 06:17:04;;;;;;;;;;;;;;;3.13;100.00;101095.50;5590603;31;33691;-69
2022/11/30 06:20:08;;;;;;;;;;;;;;;3.12;100.00;101099.06;5590184;31;34944;-69
2022/11/30 06:23:11;;;;;;;;;;;;;;;3.26;100.00;101111.25;5576158;31;33377;-69
2022/11/30 06:26:13;;;;;;;;;;;;;;;3.23;100.00;101107.06;5590107;31;33503;-68
2022/11/30 06:29:16;;;;;;;;;;;;;;;3.18;100.00;101105.69;5589970;31;33951;-69
2022/11/30 06:32:19;;;;;;;;;;;;;;;3.21;100.00;101108.94;5575787;31;34750;-68
2022/11/30 06:35:21;;;;;;;;;;;;;;;3.23;100.00;101117.56;5590059;31;34822;-69
2022/11/30 06:38:24;;;;;;;;;;;;;;;3.33;100.00;101118.63;5590083;31;34712;-68
2022/11/30 06:41:27;;;;;;;;;;;;;;;3.28;100.00;101120.72;5589790;31;34773;-68
2022/11/30 06:44:30;;;;;;;;;;;;;;;3.29;100.00;101129.41;5576086;31;34081;-68
2022/11/30 06:47:33;;;;;;;;;;;;;;;3.33;100.00;101134.34;5575641;31;34680;-68
2022/11/30 06:50:36;;;;;;;;;;;;;;;3.41;100.00;101137.28;5576082;31;34792;-68
2022/11/30 06:53:41;;;;;;;;;;;;;;;3.49;100.00;101132.34;5589871;31;35056;-68
2022/11/30 06:56:46;;;;;;;;;;;;;;;3.53;100.00;101132.16;5590034;31;34095;-69
2022/11/30 06:59:50;;;;;;;;;;;;;;;3.52;100.00;101133.09;5589795;31;34711;-68
2022/11/30 07:02:54;;;;;;;;;;;;;;;3.54;100.00;101132.03;5588737;31;34011;-69
2022/11/30 07:05:57;;;;;;;;;;;;;;;3.56;100.00;101130.16;5589840;31;34723;-69
2022/11/30 07:09:00;;;;;;;;;;;;;;;3.67;100.00;101124.19;5589562;31;34826;-70
2022/11/30 07:12:03;;;;;;;;;;;;;;;3.63;100.00;101120.91;5589591;31;34136;-69
2022/11/30 07:15:06;;;;;;;;;;;;;;;3.79;100.00;101118.91;5575912;31;34643;-69
2022/11/30 07:18:11;;;;;;;;;;;;;;;3.86;100.00;101133.31;5576013;31;34463;-69
2022/11/30 07:21:14;;;;;;;;;;;;;;;3.90;100.00;101129.53;5589642;31;34183;-69
2022/11/30 07:27:42;;;;;;;;;;;;;;;3.99;100.00;101127.19;5589292;31;34465;-68
2022/11/30 07:30:47;;;;;;;;;;;;;;;3.97;100.00;101134.34;5575898;31;34191;-69
2022/11/30 07:33:50;;;;;;;;;;;;;;;3.99;100.00;101129.81;5575662;31;34296;-70
2022/11/30 07:36:55;;;;;;;;;;;;;;;4.03;100.00;101133.91;5576024;31;34163;-69
2022/11/30 07:39:58;;;;;;;;;;;;;;;3.99;100.00;101120.16;5589393;31;34076;-70
2022/11/30 07:43:03;;;;;;;;;;;;;;;4.01;100.00;101126.16;5575275;31;33440;-69
2022/11/30 07:46:06;;;;;;;;;;;;;;;4.03;100.00;101118.97;5575454;31;34457;-69
2022/11/30 07:49:11;;;;;;;;;;;;;;;4.22;100.00;101124.63;5575195;31;34965;-70
2022/11/30 07:52:16;;;;;;;;;;;;;;;4.40;99.03;101127.75;5589165;31;34084;-69
2022/11/30 07:55:22;;;;;;;;;;;;;;;4.32;98.54;101122.16;5575865;31;34265;-68
2022/11/30 07:58:28;;;;;;;;;;;;;;;4.56;98.44;101124.81;5589156;31;34804;-70
2022/11/30 08:01:33;;;;;;;;;;;;;;;4.40;97.22;101119.84;5589061;31;34722;-69
2022/11/30 08:04:37;;;;;;;;;;;;;;;4.32;97.94;101124.78;5589083;31;33693;-69
2022/11/30 08:07:41;;;;;;;;;;;;;;;4.25;98.78;101128.81;5575004;31;32799;-71
2022/11/30 08:10:46;;;;;;;;;;;;;;;4.28;98.78;101126.81;5575005;31;35076;-71
2022/11/30 08:13:50;;;;;;;;;;;;;;;4.44;100.00;101125.72;5575444;31;35012;-69
2022/11/30 08:16:54;;;;;;;;;;;;;;;4.47;100.00;101125.50;5588780;31;34467;-72
2022/11/30 08:19:57;;;;;;;;;;;;;;;4.56;99.76;101127.44;5562015;31;32926;-71
2022/11/30 08:23:02;;;;;;;;;;;;;;;4.60;99.77;101128.94;5574991;31;33539;-71
2022/11/30 08:26:08;;;;;;;;;;;;;;;4.70;98.55;101129.91;5574914;31;34055;-71
2022/11/30 08:29:13;;;;;;;;;;;;;;;4.80;99.03;101134.38;5575165;31;34032;-70
2022/11/30 08:32:18;;;;;;;;;;;;;;;4.79;98.73;101122.19;5588723;31;34692;-70
2022/11/30 08:35:24;;;;;;;;;;;;;;;4.71;99.96;101118.44;5588656;31;34308;-70
2022/11/30 08:38:27;;;;;;;;;;;;;;;5.06;98.77;101115.84;5574400;31;35261;-70
2022/11/30 08:41:33;;;;;;;;;;;;;;;5.26;98.04;101117.84;5561774;31;32526;-71
2022/11/30 08:44:38;;;;;;;;;;;;;;;5.32;95.59;101116.53;5588226;31;34214;-70
2022/11/30 08:47:43;;;;;;;;;;;;;;;5.34;96.70;101106.72;5574190;31;32199;-71
2022/11/30 08:50:47;;;;;;;;;;;;;;;5.32;97.61;101109.47;5588299;31;33969;-70
2022/11/30 08:53:52;;;;;;;;;;;;;;;5.24;95.52;101115.31;5589178;31;34118;-69
2022/11/30 08:56:55;;;;;;;;;;;;;;;5.06;96.95;101118.47;5576746;31;32756;-69
2022/11/30 08:59:59;;;;;;;;;;;;;;;5.14;93.82;101106.44;5591009;31;34718;-69
2022/11/30 09:03:04;;;;;;;;;;;;;;;5.22;92.43;101108.50;5577327;31;34883;-69
2022/11/30 09:06:09;;;;;;;;;;;;;;;5.42;91.41;101112.25;5576480;31;35322;-72
2022/11/30 09:09:12;;;;;;;;;;;;;;;5.50;91.71;101105.44;5577209;31;34422;-70
2022/11/30 09:12:17;;;;;;;;;;;;;;;5.32;91.80;101116.53;5577471;31;34098;-70
2022/11/30 09:15:20;;;;;;;;;;;;;;;5.13;91.42;101107.38;5576535;31;32852;-70
2022/11/30 09:18:24;;;;;;;;;;;;;;;5.29;91.07;101108.84;5590258;31;34810;-71
2022/11/30 09:21:27;;;;;;;;;;;;;;;5.42;90.83;101099.91;5576947;31;34143;-69
2022/11/30 09:24:31;;;;;;;;;;;;;;;5.15;90.14;101105.47;5590696;31;34198;-70
2022/11/30 09:27:34;;;;;;;;;;;;;;;5.35;90.04;101103.97;5590630;31;34128;-70
2022/11/30 09:30:38;;;;;;;;;;;;;;;5.53;88.19;101107.81;5590412;31;34717;-71
2022/11/30 09:33:44;;;;;;;;;;;;;;;5.87;87.14;101113.16;5590626;31;35040;-70
2022/11/30 09:36:48;;;;;;;;;;;;;;;5.32;88.82;101112.13;5590359;31;34144;-70
2022/11/30 09:39:52;;;;;;;;;;;;;;;5.42;88.50;101107.81;5576731;31;35438;-71
2022/11/30 09:43:01;;;;;;;;;;;;;;;5.66;86.50;101110.38;5590722;31;34773;-72
2022/11/30 09:46:05;;;;;;;;;;;;;;;5.76;85.70;101102.59;5589929;31;34101;-69
2022/11/30 09:49:22;;;;;;;;;;;;;;;5.88;85.41;101110.41;5576555;31;34258;-70
2022/11/30 09:52:31;;;;;;;;;;;;;;;6.07;84.02;101112.41;5590508;31;34247;-70
2022/11/30 09:55:38;;;;;;;;;;;;;;;6.11;83.15;101111.22;5590332;31;34500;-69
2022/11/30 09:58:45;;;;;;;;;;;;;;;6.30;82.07;101110.59;5576795;31;33924;-69
2022/11/30 10:01:51;;;;;;;;;;;;;;;5.84;85.57;101102.81;5590175;31;34616;-71
2022/11/30 10:04:59;;;;;;;;;;;;;;;5.75;85.26;101101.75;5590160;31;34302;-70
2022/11/30 10:08:12;;;;;;;;;;;;;;;5.99;84.66;101107.78;5590049;31;34829;-71
2022/11/30 10:11:36;;;;;;;;;;;;;;;5.98;84.77;101097.34;5590341;31;34050;-71
2022/11/30 10:15:06;;;;;;;;;;;;;;;6.35;81.32;101105.78;5576866;31;34144;-69
2022/11/30 10:18:14;;;;;;;;;;;;;;;6.20;81.94;101096.47;5590199;31;34777;-70
2022/11/30 10:21:24;;;;;;;;;;;;;;;6.45;81.14;101098.81;5589802;31;34254;-70
2022/11/30 10:24:39;;;;;;;;;;;;;;;6.64;80.25;101103.44;5563474;31;33885;-71
2022/11/30 10:27:52;;;;;;;;;;;;;;;6.73;79.06;101094.81;5590021;31;34784;-71
2022/11/30 10:30:59;;;;;;;;;;;;;;;6.43;78.17;101092.84;5576095;31;34011;-71
2022/11/30 10:34:19;;;;;;;;;;;;;;;6.29;82.04;101085.22;5576313;31;34230;-69
2022/11/30 10:37:31;;;;;;;;;;;;;;;6.45;78.70;101083.00;5577797;31;34240;-71
2022/11/30 10:40:38;;;;;;;;;;;;;;;6.41;79.09;101081.59;5590787;31;34281;-71
2022/11/30 10:43:52;;;;;;;;;;;;;;;6.47;77.45;101073.19;5576470;31;34160;-71
2022/11/30 10:46:59;;;;;;;;;;;;;;;6.66;75.55;101067.25;5575928;31;35200;-71
2022/11/30 10:50:04;;;;;;;;;;;;;;;6.55;75.86;101076.88;5589987;31;34228;-71
2022/11/30 10:53:09;;;;;;;;;;;;;;;6.58;75.36;101078.44;5590226;31;34230;-71
2022/11/30 10:56:13;;;;;;;;;;;;;;;6.77;75.45;101075.13;5576221;31;34713;-70
2022/11/30 10:59:35;;;;;;;;;;;;;;;6.73;75.47;101071.06;5576224;31;34247;-71
2022/11/30 11:02:38;;;;;;;;;;;;;;;6.69;75.17;101069.62;5576506;31;33313;-70
2022/11/30 11:05:41;;;;;;;;;;;;;;;7.02;74.06;101061.56;5576301;31;34702;-70
2022/11/30 11:08:45;;;;;;;;;;;;;;;6.80;73.81;101051.13;5589568;31;34187;-70
2022/11/30 11:12:15;;;;;;;;;;;;;;;6.92;74.64;101060.66;5589913;31;34299;-70
2022/11/30 11:15:22;;;;;;;;;;;;;;;6.80;74.78;101059.88;5587971;31;34789;-71
2022/11/30 11:18:26;;;;;;;;;;;;;;;7.02;74.90;101055.47;5575601;31;34276;-70
2022/11/30 11:21:30;;;;;;;;;;;;;;;6.80;74.22;101051.97;5589866;31;34791;-71
2022/11/30 11:24:35;;;;;;;;;;;;;;;6.94;73.92;101053.44;5575954;31;34761;-70
2022/11/30 11:27:39;;;;;;;;;;;;;;;7.12;74.03;101048.41;5576072;31;34282;-71
2022/11/30 11:30:47;;;;;;;;;;;;;;;6.99;73.78;101059.19;5589508;31;34489;-70
2022/11/30 11:33:53;;;;;;;;;;;;;;;7.01;74.12;101048.50;5589531;31;34173;-69
2022/11/30 11:37:06;;;;;;;;;;;;;;;6.73;76.96;101044.69;5589611;31;34189;-70
2022/11/30 11:40:15;;;;;;;;;;;;;;;6.73;75.97;101052.62;5576112;31;34215;-70
2022/11/30 11:43:17;;;;;;;;;;;;;;;7.18;74.01;101054.03;5575545;31;32605;-70
2022/11/30 11:46:20;;;;;;;;;;;;;;;7.13;75.30;101055.38;5589704;31;34160;-70
2022/11/30 11:49:36;;;;;;;;;;;;;;;7.09;75.19;101057.44;5575602;31;34223;-70
2022/11/30 11:52:39;;;;;;;;;;;;;;;7.33;73.65;101055.38;5589348;31;34738;-70
2022/11/30 11:55:43;;;;;;;;;;;;;;;7.34;73.62;101051.78;5575338;31;34424;-70
2022/11/30 11:58:50;;;;;;;;;;;;;;;7.24;74.78;101048.25;5589320;31;34199;-70
2022/11/30 12:01:56;;;;;;;;;;;;;;;7.66;72.82;101061.38;5575551;31;34820;-70
2022/11/30 12:05:06;;;;;;;;;;;;;;;7.98;73.12;101048.84;5589170;31;34116;-70
2022/11/30 12:08:24;;;;;;;;;;;;;;;8.21;69.62;101052.94;5575076;31;34905;-70
2022/11/30 12:11:37;;;;;;;;;;;;;;;8.26;72.20;101055.16;5588613;31;34240;-69
2022/11/30 12:14:40;;;;;;;;;;;;;;;8.20;70.76;101061.00;5575177;31;34177;-70
2022/11/30 12:17:49;;;;;;;;;;;;;;;8.31;71.10;101058.28;5575380;31;34464;-70
2022/11/30 12:20:57;;;;;;;;;;;;;;;7.65;72.97;101049.16;5589047;31;34773;-70
2022/11/30 12:24:19;;;;;;;;;;;;;;;7.62;73.42;101039.69;5575075;31;33577;-70
2022/11/30 12:27:41;;;;;;;;;;;;;;;7.83;72.82;101039.63;5588483;31;34915;-70
2022/11/30 12:30:53;;;;;;;;;;;;;;;7.93;72.13;101047.56;5564065;31;34671;-69
2022/11/30 12:34:09;;;;;;;;;;;;;;;7.66;73.19;101049.00;5564278;31;33599;-70
2022/11/30 12:37:18;;;;;;;;;;;;;;;7.89;73.22;101038.25;5591155;31;34376;-70
2022/11/30 12:40:51;;;;;;;;;;;;;;;7.52;74.30;101037.94;5591158;31;34757;-71
2022/11/30 12:43:55;;;;;;;;;;;;;;;7.59;75.60;101032.03;5578439;31;34663;-70
2022/11/30 12:46:58;;;;;;;;;;;;;;;7.47;74.22;101030.44;5564470;31;33751;-70
2022/11/30 12:50:21;;;;;;;;;;;;;;;7.64;75.22;101035.09;5591192;31;34377;-70
2022/11/30 12:53:31;;;;;;;;;;;;;;;7.73;74.06;101034.31;5591465;31;34781;-71
2022/11/30 12:56:46;;;;;;;;;;;;;;;8.10;72.98;101031.06;5577560;31;34100;-70
2022/11/30 13:00:05;;;;;;;;;;;;;;;7.72;73.73;101029.16;5577418;31;34044;-70
2022/11/30 13:03:23;;;;;;;;;;;;;;;7.67;76.05;101026.91;5591053;31;34232;-70
2022/11/30 13:06:31;;;;;;;;;;;;;;;7.53;76.32;101035.19;5577005;31;33274;-70
2022/11/30 13:09:48;;;;;;;;;;;;;;;7.43;76.26;101029.03;5577211;31;34203;-70
2022/11/30 13:12:52;;;;;;;;;;;;;;;7.66;76.29;101027.88;5563676;31;34376;-70
2022/11/30 13:15:58;;;;;;;;;;;;;;;7.71;76.29;101016.91;5590799;31;34108;-70
2022/11/30 13:19:28;;;;;;;;;;;;;;;7.40;78.63;101018.75;5577306;31;34941;-70
2022/11/30 13:22:41;;;;;;;;;;;;;;;7.31;78.43;101020.34;5575415;31;33581;-69
2022/11/30 13:25:50;;;;;;;;;;;;;;;7.27;79.49;101024.22;5576942;31;34238;-69
2022/11/30 13:29:43;;;;;;;;;;;;;;;7.37;79.29;101024.28;5590791;31;34171;-69
2022/11/30 13:32:47;;;;;;;;;;;;;;;7.33;79.83;101028.12;5576690;31;32721;-69
2022/11/30 13:36:03;;;;;;;;;;;;;;;7.20;79.57;101027.53;5590508;31;34116;-70
2022/11/30 13:39:13;;;;;;;;;;;;;;;7.27;79.55;101024.22;5590186;31;34587;-70
2022/11/30 13:42:37;;;;;;;;;;;;;;;7.39;77.43;101014.44;5576369;31;34553;-70
2022/11/30 13:45:41;;;;;;;;;;;;;;;7.37;77.30;101021.62;5590497;31;34847;-69
2022/11/30 13:48:44;;;;;;;;;;;;;;;7.37;73.12;101022.47;5590455;31;34126;-69
2022/11/30 13:51:48;;;;;;;;;;;;;;;7.27;71.45;101024.22;5590763;31;34749;-69
2022/11/30 13:55:31;;;;;;;;;;;;;;;7.20;71.68;101030.16;5565902;31;34386;-69
2022/11/30 13:58:56;;;;;;;;;;;;;;;7.14;71.45;101026.22;5564064;31;34125;-69
2022/11/30 14:02:18;;;;;;;;;;;;;;;7.10;69.89;101032.75;5590481;31;34726;-69
2022/11/30 14:05:23;;;;;;;;;;;;;;;7.01;70.21;101033.53;5590466;31;34905;-70
2022/11/30 14:08:30;;;;;;;;;;;;;;;6.97;70.70;101024.19;5563491;31;34174;-69
2022/11/30 14:11:39;;;;;;;;;;;;;;;6.92;69.86;101029.81;5590714;31;34027;-70
2022/11/30 14:14:44;;;;;;;;;;;;;;;6.92;71.01;101032.47;5563353;31;33829;-70
2022/11/30 14:17:54;;;;;;;;;;;;;;;6.82;69.35;101030.75;5576752;31;34733;-69
2022/11/30 14:21:02;;;;;;;;;;;;;;;6.78;70.96;101034.59;5590226;31;34656;-69
2022/11/30 14:24:14;;;;;;;;;;;;;;;6.73;70.12;101032.31;5590158;31;34053;-69
2022/11/30 14:27:26;;;;;;;;;;;;;;;6.73;70.36;101031.53;5590288;31;34786;-69
2022/11/30 14:30:32;;;;;;;;;;;;;;;6.65;69.35;101026.87;5576389;31;34766;-69
2022/11/30 14:33:40;;;;;;;;;;;;;;;6.63;68.61;101038.50;5576805;31;34250;-69
2022/11/30 14:36:46;;;;;;;;;;;;;;;6.60;66.51;101034.31;5576326;31;34140;-69
2022/11/30 14:39:57;;;;;;;;;;;;;;;6.55;67.74;101026.78;5590073;31;34255;-69
2022/11/30 14:43:01;;;;;;;;;;;;;;;6.54;67.37;101027.75;5575930;31;35588;-69
2022/11/30 14:46:05;;;;;;;;;;;;;;;6.52;66.96;101031.47;5576212;31;34799;-69
2022/11/30 14:49:16;;;;;;;;;;;;;;;6.51;66.64;101028.00;5563532;31;34946;-69
2022/11/30 14:52:24;;;;;;;;;;;;;;;6.51;68.53;101027.16;5589198;31;34068;-69
2022/11/30 14:55:39;;;;;;;;;;;;;;;6.43;67.46;101032.25;5576022;31;34268;-69
2022/11/30 14:58:42;;;;;;;;;;;;;;;6.42;67.76;101026.13;5589645;31;34207;-69
2022/11/30 15:01:47;;;;;;;;;;;;;;;6.45;68.20;101023.22;5575815;31;34994;-69
2022/11/30 15:04:51;;;;;;;;;;;;;;;6.41;68.40;101020.97;5575683;31;34146;-69
2022/11/30 15:07:56;;;;;;;;;;;;;;;6.34;69.45;101028.53;5575140;31;33112;-69
2022/11/30 15:11:18;;;;;;;;;;;;;;;6.31;70.14;101023.53;5562806;31;32947;-68
2022/11/30 15:14:23;;;;;;;;;;;;;;;6.34;70.34;101020.63;5589509;31;34474;-68
2022/11/30 15:17:27;;;;;;;;;;;;;;;6.26;68.74;101022.22;5589214;31;34161;-69
2022/11/30 15:20:38;;;;;;;;;;;;;;;6.25;69.05;101018.75;5589456;31;34082;-68
2022/11/30 15:23:43;;;;;;;;;;;;;;;6.25;68.69;101015.25;5589438;31;34619;-69
2022/11/30 15:27:00;;;;;;;;;;;;;;;6.23;68.44;101022.47;5575285;31;33281;-69
2022/11/30 15:30:14;;;;;;;;;;;;;;;6.19;68.78;101021.06;5589507;31;34097;-68
2022/11/30 15:33:19;;;;;;;;;;;;;;;6.10;69.42;101026.09;5589172;31;34229;-68
2022/11/30 15:36:23;;;;;;;;;;;;;;;6.05;69.95;101015.06;5588850;31;34736;-69
2022/11/30 15:39:37;;;;;;;;;;;;;;;6.00;70.33;101011.97;5575045;31;34544;-69
2022/11/30 15:42:45;;;;;;;;;;;;;;;5.96;71.65;101017.63;5589207;31;34771;-69
2022/11/30 15:45:57;;;;;;;;;;;;;;;5.94;72.20;101023.03;5575632;31;34746;-69
2022/11/30 15:49:04;;;;;;;;;;;;;;;5.97;72.78;101017.50;5575450;31;34905;-69
2022/11/30 15:52:13;;;;;;;;;;;;;;;6.14;72.99;101028.50;5574481;31;34457;-69
2022/11/30 15:55:36;;;;;;;;;;;;;;;5.99;73.95;101020.84;5588487;31;34480;-69
2022/11/30 15:58:45;;;;;;;;;;;;;;;6.02;82.91;101020.59;5588756;31;34185;-69
2022/11/30 16:02:03;;;;;;;;;;;;;;;5.92;85.66;101024.09;5588294;31;34146;-68
2022/11/30 16:05:14;;;;;;;;;;;;;;;5.85;86.61;101015.00;5588409;31;34101;-68
2022/11/30 16:08:19;;;;;;;;;;;;;;;5.76;86.68;101015.72;5588332;31;34748;-68
2022/11/30 16:11:24;;;;;;;;;;;;;;;5.74;86.57;101015.81;5588011;31;34187;-69
2022/11/30 16:14:30;;;;;;;;;;;;;;;5.69;89.66;101005.66;5588164;31;34365;-69
2022/11/30 16:17:36;;;;;;;;;;;;;;;5.62;89.79;101001.81;5574119;31;33438;-67
2022/11/30 16:20:43;;;;;;;;;;;;;;;5.58;89.90;101002.19;5562165;31;34344;-69